Time;durP1;ratioP1;P1;durP2;ratioP2;P2;SDS_P1;SDS_P2;PMS_P1;PMS_P2;Temp;Humidity;BMP_temperature;BMP_pressure;BME280_temperature;BME280_humidity;BME280_pressure;Samples;Min_cycle;Max_cycle;Signal;HPM_P1;HPM_P2
2021/05/02 00:01:34;;;;;;;6.90;4.58;;;;;;;14.65;52.91;100556.97;1803960;79;21389;-59
2021/05/02 00:04:40;;;;;;;11.80;5.20;;;;;;;14.66;53.00;100552.63;1804138;79;21343;-59
2021/05/02 00:07:45;;;;;;;6.62;4.35;;;;;;;14.68;53.10;100543.62;1803998;79;21236;-59
2021/05/02 00:10:52;;;;;;;6.10;4.15;;;;;;;14.71;52.65;100532.20;1803449;79;21347;-59
2021/05/02 00:13:57;;;;;;;6.50;4.50;;;;;;;14.73;52.39;100535.61;1804125;79;21265;-58
2021/05/02 00:17:03;;;;;;;6.25;4.20;;;;;;;14.78;52.28;100533.64;1804190;79;21366;-58
2021/05/02 00:20:10;;;;;;;10.53;4.72;;;;;;;14.82;51.99;100528.93;1804170;79;21414;-59
2021/05/02 00:23:17;;;;;;;8.90;4.75;;;;;;;14.86;51.78;100521.09;1803619;79;21342;-59
2021/05/02 00:26:22;;;;;;;4.97;4.00;;;;;;;14.89;51.70;100511.03;1803856;79;21555;-58
2021/05/02 00:29:27;;;;;;;6.47;4.30;;;;;;;14.92;51.90;100508.73;1804148;79;21177;-59
2021/05/02 00:32:31;;;;;;;8.55;4.30;;;;;;;14.96;51.98;100499.55;1804206;79;21323;-60
2021/05/02 00:35:39;;;;;;;7.45;4.50;;;;;;;14.98;51.96;100491.94;1792909;79;21196;-58
2021/05/02 00:38:45;;;;;;;6.78;4.40;;;;;;;14.98;51.79;100486.42;1751150;81;21714;-59
2021/05/02 00:41:54;;;;;;;6.95;4.28;;;;;;;15.01;51.64;100484.64;1783458;79;21193;-59
2021/05/02 00:45:13;;;;;;;4.55;3.65;;;;;;;15.03;51.50;100471.52;1755890;81;21224;-58
2021/05/02 00:48:27;;;;;;;5.78;4.35;;;;;;;15.05;51.35;100459.73;1720194;81;21488;-58
2021/05/02 00:51:33;;;;;;;7.12;3.98;;;;;;;15.09;51.02;100451.91;1799772;79;21903;-58
2021/05/02 00:54:45;;;;;;;9.40;4.15;;;;;;;15.12;50.97;100447.36;1803488;79;21355;-59
2021/05/02 00:58:05;;;;;;;7.15;4.28;;;;;;;15.15;51.05;100440.92;1804103;79;21208;-59
2021/05/02 01:01:11;;;;;;;5.83;4.17;;;;;;;15.16;51.03;100434.34;1803452;79;21363;-58
2021/05/02 01:04:19;;;;;;;6.65;4.22;;;;;;;15.15;51.06;100432.65;1802561;79;21385;-58
2021/05/02 01:07:28;;;;;;;7.95;4.22;;;;;;;15.15;51.21;100431.27;1804252;79;21339;-58
2021/05/02 01:10:35;;;;;;;8.15;4.55;;;;;;;15.14;51.56;100426.82;1804205;79;21884;-59
2021/05/02 01:13:44;;;;;;;8.23;4.35;;;;;;;15.14;51.81;100431.48;1804243;79;21659;-59
2021/05/02 01:16:50;;;;;;;6.50;4.65;;;;;;;15.13;51.92;100422.34;1803517;79;21363;-59
2021/05/02 01:19:56;;;;;;;8.85;4.50;;;;;;;15.15;51.99;100416.09;1803390;79;21291;-58
2021/05/02 01:23:06;;;;;;;7.42;4.62;;;;;;;15.18;52.14;100417.58;1803611;79;21356;-59
2021/05/02 01:26:12;;;;;;;5.85;4.42;;;;;;;15.21;52.05;100415.80;1779615;79;21352;-59
2021/05/02 01:29:19;;;;;;;8.28;4.65;;;;;;;15.23;52.09;100426.10;1771826;81;21336;-60
2021/05/02 01:32:25;;;;;;;7.67;5.22;;;;;;;15.27;51.90;100530.84;1735816;82;21224;-60
2021/05/02 01:35:31;;;;;;;7.15;5.80;;;;;;;15.28;52.54;100510.47;1772039;81;21217;-59
2021/05/02 01:38:37;;;;;;;7.78;5.40;;;;;;;15.34;54.02;100506.89;1772370;81;21312;-61
2021/05/02 01:41:44;;;;;;;8.35;5.65;;;;;;;15.42;53.89;100504.86;1772427;80;21323;-60
2021/05/02 01:44:52;;;;;;;8.20;4.95;;;;;;;15.46;53.70;100489.59;1772352;80;21401;-60
2021/05/02 01:48:01;;;;;;;9.48;5.95;;;;;;;15.48;53.93;100494.38;1735393;81;21335;-61
2021/05/02 01:51:13;;;;;;;14.30;7.08;;;;;;;15.51;55.00;100495.86;1772365;81;21224;-60
2021/05/02 01:54:23;;;;;;;19.35;8.25;;;;;;;15.49;57.41;100484.20;1772484;80;21355;-60
2021/05/02 01:57:36;;;;;;;13.05;8.08;;;;;;;15.45;60.02;100492.03;1772399;81;21173;-59
2021/05/02 02:00:54;;;;;;;13.75;8.48;;;;;;;15.36;62.40;100481.34;1735364;82;21817;-59
2021/05/02 02:04:00;;;;;;;15.45;9.20;;;;;;;15.23;64.29;100468.33;1733707;82;21220;-59
2021/05/02 02:07:08;;;;;;;14.13;10.48;;;;;;;15.09;66.38;100470.69;1772568;80;21205;-59
2021/05/02 02:10:14;;;;;;;19.23;12.93;;;;;;;14.98;67.30;100478.16;1775272;79;21225;-57
2021/05/02 02:13:21;;;;;;;16.67;12.35;;;;;;;14.86;68.34;100472.84;1770848;81;21356;-57
2021/05/02 02:16:25;;;;;;;17.95;11.88;;;;;;;14.76;69.07;100470.45;1772104;80;21379;-58
2021/05/02 02:19:32;;;;;;;16.95;11.57;;;;;;;14.69;70.07;100479.72;1771306;81;21198;-58
2021/05/02 02:22:49;;;;;;;15.30;11.08;;;;;;;14.64;70.45;100482.22;1772204;79;21336;-59
2021/05/02 02:25:56;;;;;;;15.60;11.30;;;;;;;14.56;70.60;100483.23;1782963;79;21251;-59
2021/05/02 02:29:02;;;;;;;15.70;11.08;;;;;;;14.49;70.68;100479.55;1803539;79;21323;-58
2021/05/02 02:32:07;;;;;;;15.43;11.25;;;;;;;14.44;71.06;100468.81;1804069;79;21379;-58
2021/05/02 02:35:17;;;;;;;16.37;10.88;;;;;;;14.42;71.29;100464.02;1765666;81;21268;-58
2021/05/02 02:38:24;;;;;;;16.07;11.40;;;;;;;14.42;71.44;100457.14;1775302;79;21356;-58
2021/05/02 02:41:30;;;;;;;15.18;9.90;;;;;;;14.40;71.65;100446.32;1770460;80;21426;-58
2021/05/02 02:44:35;;;;;;;15.65;10.60;;;;;;;14.41;72.01;100436.16;1770982;80;21663;-58
2021/05/02 02:47:49;;;;;;;17.52;10.68;;;;;;;14.42;72.47;100441.47;1770963;80;21227;-58
2021/05/02 02:50:54;;;;;;;20.47;12.07;;;;;;;14.46;72.87;100440.56;1768260;80;21217;-58
2021/05/02 02:54:02;;;;;;;15.40;10.28;;;;;;;14.49;73.42;100448.42;1770757;80;21228;-58
2021/05/02 02:57:08;;;;;;;21.27;12.20;;;;;;;14.50;74.06;100444.60;1769375;80;21789;-59
2021/05/02 03:00:15;;;;;;;17.65;11.35;;;;;;;14.50;74.78;100433.58;1769645;80;21221;-58
2021/05/02 03:03:28;;;;;;;13.25;10.15;;;;;;;14.53;75.64;100445.06;1769042;81;21387;-59
2021/05/02 03:06:35;;;;;;;15.53;10.82;;;;;;;14.56;76.19;100445.17;1769202;81;21861;-58
2021/05/02 03:09:40;;;;;;;13.53;9.98;;;;;;;14.61;76.57;100434.41;1769309;80;21360;-58
2021/05/02 03:12:46;;;;;;;15.68;10.23;;;;;;;14.63;77.16;100430.94;1769080;81;21905;-58
2021/05/02 03:15:53;;;;;;;18.15;11.70;;;;;;;14.62;77.63;100412.68;1769220;80;21253;-57
2021/05/02 03:19:23;;;;;;;17.48;10.93;;;;;;;14.63;77.92;100418.02;1769086;80;21363;-57
2021/05/02 03:23:04;;;;;;;13.93;10.45;;;;;;;14.59;78.18;100414.46;1769238;81;21671;-57
2021/05/02 03:26:14;;;;;;;13.88;9.88;;;;;;;14.49;78.30;100411.23;1769174;81;21754;-57
2021/05/02 03:29:20;;;;;;;14.55;9.65;;;;;;;14.44;78.58;100416.48;1769311;81;21236;-57
2021/05/02 03:32:30;;;;;;;16.70;10.05;;;;;;;14.46;78.88;100406.13;1769129;81;21633;-57
2021/05/02 03:35:40;;;;;;;11.83;9.13;;;;;;;14.50;79.08;100400.52;1769111;81;21265;-57
2021/05/02 03:38:58;;;;;;;13.93;10.30;;;;;;;14.55;79.21;100406.29;1769134;81;21244;-57
2021/05/02 03:42:04;;;;;;;12.00;9.45;;;;;;;14.61;79.29;100399.45;1769137;80;21367;-57
2021/05/02 03:45:10;;;;;;;13.72;10.15;;;;;;;14.66;79.31;100401.08;1768996;81;21332;-57
2021/05/02 03:48:16;;;;;;;16.00;10.32;;;;;;;14.71;79.29;100401.84;1769360;81;21315;-57
2021/05/02 03:51:22;;;;;;;13.48;9.98;;;;;;;14.75;79.29;100413.64;1767700;80;21217;-57
2021/05/02 03:54:28;;;;;;;13.20;9.38;;;;;;;14.78;79.35;100416.51;1758752;81;21537;-57
2021/05/02 03:57:34;;;;;;;11.85;9.33;;;;;;;14.81;79.42;100422.47;1758423;81;21209;-58
2021/05/02 04:00:41;;;;;;;15.80;9.88;;;;;;;14.85;79.52;100432.05;1758431;81;21571;-58
2021/05/02 04:03:46;;;;;;;16.70;10.20;;;;;;;14.91;79.67;100429.00;1736739;81;21340;-58
2021/05/02 04:06:52;;;;;;;16.50;10.35;;;;;;;14.94;79.80;100432.20;1758385;81;21249;-57
2021/05/02 04:10:00;;;;;;;13.72;9.85;;;;;;;14.99;79.91;100441.24;1758514;81;21228;-57
2021/05/02 04:13:05;;;;;;;13.40;9.78;;;;;;;15.03;80.04;100444.45;1758281;81;21202;-58
2021/05/02 04:16:12;;;;;;;14.53;10.38;;;;;;;15.07;80.12;100454.88;1758249;81;21252;-57
2021/05/02 04:19:21;;;;;;;17.32;12.90;;;;;;;15.03;79.93;100442.01;1758249;81;21260;-58
2021/05/02 04:22:30;;;;;;;16.40;12.75;;;;;;;15.01;79.67;100448.80;1758444;81;21216;-58
2021/05/02 04:25:36;;;;;;;22.32;13.83;;;;;;;15.06;79.45;100442.67;1758174;81;21233;-57
2021/05/02 04:28:42;;;;;;;22.98;13.20;;;;;;;15.12;79.33;100446.84;1758451;81;21217;-58
2021/05/02 04:31:47;;;;;;;21.35;14.40;;;;;;;15.20;78.91;100455.47;1758402;81;21228;-58
2021/05/02 04:34:53;;;;;;;20.70;14.03;;;;;;;15.26;78.45;100452.75;1758376;81;21240;-58
2021/05/02 04:37:58;;;;;;;17.20;13.40;;;;;;;15.38;78.30;100453.03;1758419;81;21190;-57
2021/05/02 04:41:06;;;;;;;19.17;13.90;;;;;;;15.48;78.13;100448.86;1758338;81;21240;-58
2021/05/02 04:44:11;;;;;;;23.47;13.98;;;;;;;15.60;78.07;100441.67;1758454;81;21276;-58
2021/05/02 04:47:26;;;;;;;18.30;14.15;;;;;;;15.71;77.83;100441.11;1758419;81;21205;-58
2021/05/02 04:50:30;;;;;;;18.37;13.48;;;;;;;15.84;77.80;100432.84;1758380;81;21205;-58
2021/05/02 04:53:36;;;;;;;19.15;14.43;;;;;;;16.00;77.76;100436.59;1769496;80;21212;-58
2021/05/02 04:56:43;;;;;;;20.43;14.05;;;;;;;16.14;77.54;100442.45;1771003;81;21418;-59
2021/05/02 04:59:50;;;;;;;20.97;14.53;;;;;;;16.24;77.25;100437.37;1770692;81;21359;-57
2021/05/02 05:02:54;;;;;;;17.40;12.73;;;;;;;16.29;77.16;100442.27;1770056;81;21351;-57
2021/05/02 05:06:01;;;;;;;18.20;13.48;;;;;;;16.37;77.03;100442.06;1770834;81;21390;-57
2021/05/02 05:09:10;;;;;;;17.75;13.22;;;;;;;16.41;76.43;100441.42;1770891;81;21793;-59
2021/05/02 05:12:17;;;;;;;19.50;14.20;;;;;;;16.46;76.14;100435.29;1770736;81;21359;-58
2021/05/02 05:15:22;;;;;;;20.55;14.33;;;;;;;16.57;75.96;100433.27;1770757;81;21264;-58
2021/05/02 05:18:28;;;;;;;22.37;14.25;;;;;;;16.72;75.68;100435.29;1770782;81;21272;-57
2021/05/02 05:21:35;;;;;;;18.50;14.13;;;;;;;16.87;75.12;100423.45;1770862;81;21375;-57
2021/05/02 05:24:44;;;;;;;21.80;14.47;;;;;;;17.02;74.94;100420.45;1770782;81;21374;-57
2021/05/02 05:27:50;;;;;;;20.48;14.65;;;;;;;17.09;74.32;100430.45;1770745;81;21418;-57
2021/05/02 05:30:56;;;;;;;20.70;14.53;;;;;;;17.12;74.20;100426.39;1770831;81;21871;-57
2021/05/02 05:34:02;;;;;;;27.20;15.72;;;;;;;17.12;73.97;100429.16;1770739;81;21327;-57
2021/05/02 05:37:07;;;;;;;25.77;15.63;;;;;;;17.10;73.82;100422.45;1770848;81;21394;-58
2021/05/02 05:40:14;;;;;;;25.02;15.58;;;;;;;17.13;74.14;100418.39;1770909;81;21419;-57
2021/05/02 05:43:20;;;;;;;24.72;15.98;;;;;;;17.20;74.50;100410.94;1770815;81;21347;-57
2021/05/02 05:46:29;;;;;;;27.40;16.80;;;;;;;17.31;74.41;100421.33;1769989;81;21410;-58
2021/05/02 05:49:39;;;;;;;20.82;16.55;;;;;;;17.39;74.09;100421.95;1769457;81;21747;-58
2021/05/02 05:52:46;;;;;;;25.90;17.32;;;;;;;17.49;74.04;100419.58;1768720;81;21857;-58
2021/05/02 05:55:56;;;;;;;25.70;17.70;;;;;;;17.57;74.25;100419.84;1770345;81;21370;-57
2021/05/02 05:58:59;;;;;;;22.37;16.48;;;;;;;17.60;74.14;100420.27;1769885;81;21189;-58
2021/05/02 06:02:04;;;;;;;21.55;16.80;;;;;;;17.63;74.43;100404.59;1753993;81;21192;-58
2021/05/02 06:05:10;;;;;;;23.87;16.85;;;;;;;17.68;74.49;100406.70;1770357;81;21362;-58
2021/05/02 06:08:15;;;;;;;28.32;17.62;;;;;;;17.66;74.44;100401.94;1770369;81;21928;-58
2021/05/02 06:11:21;;;;;;;23.10;17.25;;;;;;;17.65;74.50;100405.75;1770755;81;21367;-58
2021/05/02 06:14:28;;;;;;;25.80;18.95;;;;;;;17.69;74.60;100420.88;1770500;81;21390;-57
2021/05/02 06:17:34;;;;;;;26.77;19.48;;;;;;;17.69;74.72;100410.66;1770235;81;21337;-58
2021/05/02 06:20:40;;;;;;;25.15;20.02;;;;;;;17.73;74.77;100413.81;1769369;81;21375;-58
2021/05/02 06:23:47;;;;;;;29.50;20.88;;;;;;;17.78;74.83;100413.47;1770821;81;21390;-59
2021/05/02 06:26:54;;;;;;;29.30;20.57;;;;;;;17.85;74.83;100405.95;1770947;81;21351;-59
2021/05/02 06:30:01;;;;;;;27.62;21.33;;;;;;;17.95;74.92;100411.56;1770931;81;21351;-58
2021/05/02 06:33:08;;;;;;;27.85;18.73;;;;;;;18.09;75.02;100407.11;1771040;80;21367;-58
2021/05/02 06:36:14;;;;;;;23.70;18.17;;;;;;;18.22;74.71;100405.60;1747769;81;21764;-57
2021/05/02 06:39:19;;;;;;;24.25;18.07;;;;;;;18.33;74.48;100401.27;1770827;81;21338;-58
2021/05/02 06:42:25;;;;;;;21.50;16.40;;;;;;;18.47;74.56;100403.72;1770684;81;21583;-58
2021/05/02 06:45:32;;;;;;;24.70;17.00;;;;;;;18.64;74.27;100401.23;1770109;81;21370;-57
2021/05/02 06:48:41;;;;;;;26.15;17.45;;;;;;;18.82;74.28;100400.73;1770912;81;21339;-59
2021/05/02 06:51:46;;;;;;;22.93;18.20;;;;;;;18.99;73.92;100396.83;1771092;80;21992;-57
2021/05/02 06:54:53;;;;;;;20.27;16.57;;;;;;;19.12;73.27;100400.30;1770280;80;21350;-58
2021/05/02 06:57:59;;;;;;;24.57;16.60;;;;;;;19.25;73.15;100399.29;1770423;81;21368;-58
2021/05/02 07:01:04;;;;;;;23.83;16.57;;;;;;;19.38;73.00;100404.72;1775341;79;21351;-58
2021/05/02 07:04:11;;;;;;;22.50;15.78;;;;;;;19.44;72.55;100396.02;1803878;79;22107;-58
2021/05/02 07:07:16;;;;;;;21.70;16.00;;;;;;;19.51;72.60;100393.98;1803121;79;21700;-58
2021/05/02 07:10:21;;;;;;;24.57;16.62;;;;;;;19.65;72.60;100400.53;1803507;79;21347;-57
2021/05/02 07:13:30;;;;;;;22.85;16.05;;;;;;;19.87;72.58;100403.66;1803788;79;21722;-59
2021/05/02 07:16:37;;;;;;;22.02;14.73;;;;;;;20.15;71.81;100404.73;1803892;79;21896;-59
2021/05/02 07:19:43;;;;;;;18.37;14.18;;;;;;;20.35;71.01;100401.12;1803631;79;21422;-60
2021/05/02 07:22:54;;;;;;;17.42;13.72;;;;;;;20.57;70.35;100399.98;1803982;79;21354;-59
2021/05/02 07:26:00;;;;;;;17.98;11.78;;;;;;;20.75;69.41;100401.29;1803952;79;21279;-59
2021/05/02 07:29:07;;;;;;;22.07;13.62;;;;;;;20.87;68.55;100396.55;1803633;79;21335;-59
2021/05/02 07:32:14;;;;;;;17.52;12.53;;;;;;;21.00;67.94;100388.53;1804128;79;21331;-59
2021/05/02 07:35:20;;;;;;;19.12;13.45;;;;;;;21.14;67.30;100392.21;1803977;79;21319;-58
2021/05/02 07:38:28;;;;;;;14.10;10.75;;;;;;;21.33;67.08;100387.33;1804466;79;21354;-59
2021/05/02 07:41:34;;;;;;;13.35;9.15;;;;;;;21.49;66.03;100388.81;1803789;79;21731;-59
2021/05/02 07:44:42;;;;;;;12.53;8.60;;;;;;;21.62;64.14;100387.14;1804220;79;21338;-60
2021/05/02 07:47:49;;;;;;;12.10;9.70;;;;;;;21.76;63.43;100382.14;1803278;79;21288;-59
2021/05/02 07:51:01;;;;;;;12.82;9.35;;;;;;;21.94;62.99;100384.20;1804105;79;21240;-58
2021/05/02 07:54:08;;;;;;;14.43;9.45;;;;;;;22.05;61.48;100381.91;1803559;79;21389;-59
2021/05/02 07:57:14;;;;;;;15.83;9.68;;;;;;;22.09;61.73;100370.53;1801359;79;21363;-58
2021/05/02 08:00:22;;;;;;;16.73;10.38;;;;;;;22.15;61.67;100368.70;1803663;79;21887;-60
2021/05/02 08:03:28;;;;;;;11.48;9.98;;;;;;;22.17;61.52;100365.09;1804060;79;21196;-61
2021/05/02 08:06:37;;;;;;;14.03;9.60;;;;;;;22.19;61.59;100368.48;1785727;79;21346;-58
2021/05/02 08:09:43;;;;;;;16.55;10.55;;;;;;;22.14;61.66;100365.06;1804170;79;21233;-59
2021/05/02 08:12:51;;;;;;;13.65;8.88;;;;;;;22.08;61.58;100356.84;1803993;79;21880;-59
2021/05/02 08:15:56;;;;;;;13.53;9.73;;;;;;;21.99;61.77;100343.85;1803154;79;21450;-58
2021/05/02 08:19:03;;;;;;;12.43;8.83;;;;;;;22.03;62.03;100333.91;1803938;79;21194;-59
2021/05/02 08:22:10;;;;;;;12.35;9.13;;;;;;;22.05;61.98;100330.86;1803954;79;21256;-60
2021/05/02 08:25:16;;;;;;;13.38;8.93;;;;;;;22.05;62.33;100333.66;1803385;79;21366;-60
2021/05/02 08:28:21;;;;;;;14.38;8.75;;;;;;;22.02;62.61;100336.38;1803635;79;21821;-58
2021/05/02 08:31:28;;;;;;;12.23;8.60;;;;;;;22.10;62.62;100333.75;1798391;79;21394;-59
2021/05/02 08:34:34;;;;;;;11.73;8.50;;;;;;;22.17;62.68;100327.44;1777849;79;21174;-60
2021/05/02 08:37:40;;;;;;;12.58;9.33;;;;;;;22.21;62.70;100330.86;1769466;80;21405;-60
2021/05/02 08:40:46;;;;;;;14.87;8.70;;;;;;;22.23;62.85;100330.06;1768810;80;21205;-58
2021/05/02 08:43:58;;;;;;;13.83;8.50;;;;;;;22.34;62.82;100319.09;1764482;81;21752;-59
2021/05/02 08:47:05;;;;;;;9.05;7.15;;;;;;;22.57;62.40;100320.32;1765767;80;21735;-59
2021/05/02 08:50:17;;;;;;;9.45;7.37;;;;;;;22.83;62.04;100322.41;1764948;81;21194;-59
2021/05/02 08:53:22;;;;;;;11.05;7.28;;;;;;;23.09;60.24;100325.83;1765698;80;21324;-59
2021/05/02 08:56:30;;;;;;;11.75;7.47;;;;;;;23.30;59.30;100322.24;1764779;80;21336;-58
2021/05/02 08:59:35;;;;;;;11.38;7.22;;;;;;;23.40;58.15;100314.82;1767405;81;21912;-60
2021/05/02 09:02:41;;;;;;;11.25;6.87;;;;;;;23.49;58.71;100308.23;1765630;81;21767;-59
2021/05/02 09:05:57;;;;;;;13.08;7.55;;;;;;;23.59;58.30;100317.56;1776884;79;21371;-60
2021/05/02 09:09:06;;;;;;;9.05;6.33;;;;;;;23.76;57.80;100310.49;1789570;79;21178;-59
2021/05/02 09:12:13;;;;;;;10.80;6.75;;;;;;;23.89;57.16;100300.30;1783344;79;21904;-58
2021/05/02 09:15:25;;;;;;;10.78;6.72;;;;;;;23.96;57.08;100303.70;1792614;79;21945;-59
2021/05/02 09:18:51;;;;;;;11.30;6.47;;;;;;;23.88;55.42;100297.19;1788321;79;21212;-59
2021/05/02 09:21:54;;;;;;;12.55;7.35;;;;;;;23.76;55.44;100296.52;1771718;80;21342;-59
2021/05/02 09:25:11;;;;;;;11.12;6.62;;;;;;;23.71;55.37;100295.06;1771919;80;21397;-58
2021/05/02 09:28:16;;;;;;;11.73;6.60;;;;;;;23.82;55.34;100289.86;1793102;79;21287;-58
2021/05/02 09:31:29;;;;;;;11.53;5.87;;;;;;;24.00;55.18;100282.53;1772555;81;21939;-58
2021/05/02 09:34:33;;;;;;;7.50;5.03;;;;;;;24.17;53.93;100288.83;1766219;81;21178;-60
2021/05/02 09:37:42;;;;;;;9.50;5.62;;;;;;;24.30;53.49;100292.58;1773749;81;21867;-60
2021/05/02 09:41:04;;;;;;;9.53;5.70;;;;;;;24.40;52.33;100287.08;1766007;81;21229;-59
2021/05/02 09:44:11;;;;;;;12.90;6.25;;;;;;;24.51;51.79;100286.03;1752586;81;21204;-59
2021/05/02 09:47:39;;;;;;;11.80;6.55;;;;;;;24.58;51.38;100279.62;1766406;81;21397;-59
2021/05/02 09:50:45;;;;;;;13.40;7.08;;;;;;;24.62;51.56;100277.99;1780924;79;21216;-59
2021/05/02 09:54:24;;;;;;;11.35;6.10;;;;;;;24.58;51.87;100267.03;1798789;79;21579;-58
2021/05/02 09:57:31;;;;;;;7.65;5.25;;;;;;;24.60;51.67;100257.81;1802022;79;21196;-58
2021/05/02 10:01:02;;;;;;;6.85;4.37;;;;;;;24.60;51.17;100262.02;1804176;79;21374;-59
2021/05/02 10:04:08;;;;;;;7.85;4.83;;;;;;;24.52;50.84;100257.47;1775597;79;21371;-59
2021/05/02 10:07:20;;;;;;;8.30;4.80;;;;;;;24.49;50.33;100252.41;1759897;81;21194;-59
2021/05/02 10:10:26;;;;;;;6.80;4.87;;;;;;;24.52;49.99;100254.13;1759544;81;21864;-59
2021/05/02 10:13:33;;;;;;;6.55;4.72;;;;;;;24.46;49.97;100255.20;1783671;79;21165;-60
2021/05/02 10:16:38;;;;;;;8.48;6.00;;;;;;;24.44;49.89;100258.83;1767115;80;21685;-59
2021/05/02 10:19:44;;;;;;;11.48;5.72;;;;;;;24.48;50.34;100252.95;1766675;81;21224;-59
2021/05/02 10:22:50;;;;;;;9.88;4.97;;;;;;;24.53;50.55;100257.20;1770478;79;21229;-59
2021/05/02 10:25:58;;;;;;;9.03;5.55;;;;;;;24.55;50.87;100256.38;1769804;80;21196;-58
2021/05/02 10:29:07;;;;;;;10.38;5.37;;;;;;;24.52;51.34;100254.13;1774581;79;21321;-59
2021/05/02 10:32:17;;;;;;;11.30;5.12;;;;;;;24.42;51.75;100254.05;1774530;79;21743;-59
2021/05/02 10:35:24;;;;;;;8.45;5.05;;;;;;;24.40;52.13;100256.84;1796508;78;21252;-59
2021/05/02 10:38:32;;;;;;;12.80;4.90;;;;;;;24.43;51.49;100249.30;1771764;79;21232;-58
2021/05/02 10:41:45;;;;;;;7.97;4.80;;;;;;;24.44;50.69;100246.23;1690321;84;21776;-58
2021/05/02 10:44:50;;;;;;;6.37;4.67;;;;;;;24.44;50.33;100245.38;1790896;80;21205;-59
2021/05/02 10:47:57;;;;;;;7.75;4.92;;;;;;;24.46;50.33;100234.22;1791320;79;21324;-59
2021/05/02 10:51:03;;;;;;;5.92;4.78;;;;;;;24.54;49.66;100244.05;1786129;79;21829;-58
2021/05/02 10:54:12;;;;;;;5.55;4.20;;;;;;;24.60;49.73;100245.22;1802732;79;21173;-58
2021/05/02 10:57:44;;;;;;;8.55;4.87;;;;;;;24.62;49.33;100240.20;1803302;79;21912;-59
2021/05/02 11:01:04;;;;;;;8.53;5.10;;;;;;;24.65;49.96;100250.86;1802758;79;21398;-59
2021/05/02 11:04:09;;;;;;;7.70;4.55;;;;;;;24.55;49.83;100246.58;1791658;79;21220;-59
2021/05/02 11:07:14;;;;;;;8.08;4.65;;;;;;;24.38;50.65;100247.31;1738375;81;21225;-59
2021/05/02 11:10:24;;;;;;;8.43;4.70;;;;;;;24.09;50.93;100250.16;1714093;82;21228;-58
2021/05/02 11:13:33;;;;;;;6.72;5.33;;;;;;;23.78;51.54;100256.56;1706169;84;21446;-58
2021/05/02 11:16:39;;;;;;;10.72;6.75;;;;;;;23.56;52.50;100257.17;1730654;82;21276;-59
2021/05/02 11:19:50;;;;;;;17.62;10.63;;;;;;;23.38;54.05;100261.17;1734973;82;21205;-59
2021/05/02 11:22:55;;;;;;;10.50;6.42;;;;;;;23.15;55.28;100261.98;1735087;82;21238;-59
2021/05/02 11:26:03;;;;;;;6.80;4.72;;;;;;;22.88;56.30;100267.47;1735383;82;21242;-59
2021/05/02 11:29:20;;;;;;;8.08;5.20;;;;;;;22.64;57.62;100265.19;1734636;82;21261;-60
2021/05/02 11:32:43;;;;;;;7.22;5.33;;;;;;;22.35;58.17;100270.55;1735337;82;21194;-59
2021/05/02 11:35:53;;;;;;;8.40;4.70;;;;;;;22.11;59.51;100266.57;1757904;81;21366;-59
2021/05/02 11:38:58;;;;;;;7.40;4.83;;;;;;;21.87;59.43;100258.60;1760443;81;21735;-58
2021/05/02 11:42:13;;;;;;;7.53;4.90;;;;;;;21.66;58.92;100260.72;1761117;81;21213;-58
2021/05/02 11:45:19;;;;;;;9.35;7.15;;;;;;;21.52;58.88;100253.74;1734816;82;21229;-58
2021/05/02 11:48:28;;;;;;;11.73;8.00;;;;;;;21.41;59.74;100251.32;1735859;82;21329;-58
2021/05/02 11:51:34;;;;;;;10.08;7.55;;;;;;;21.34;59.57;100243.69;1771294;81;21229;-58
2021/05/02 11:54:39;;;;;;;18.77;12.00;;;;;;;21.31;59.85;100242.76;1766833;79;21224;-58
2021/05/02 11:57:52;;;;;;;12.13;8.15;;;;;;;21.28;60.08;100231.30;1768529;79;21209;-59
2021/05/02 12:00:59;;;;;;;15.90;9.70;;;;;;;21.27;59.92;100227.66;1802287;78;21343;-59
2021/05/02 12:04:17;;;;;;;14.68;9.55;;;;;;;21.27;59.43;100216.52;1803496;79;21331;-60
2021/05/02 12:07:22;;;;;;;15.40;10.05;;;;;;;21.24;58.59;100217.02;1803826;79;21383;-59
2021/05/02 12:10:28;;;;;;;16.12;9.35;;;;;;;21.20;58.31;100213.02;1804000;79;21370;-59
2021/05/02 12:13:43;;;;;;;14.43;9.75;;;;;;;21.20;58.90;100210.81;1707967;82;21311;-58
2021/05/02 12:16:48;;;;;;;14.07;8.95;;;;;;;21.18;58.84;100215.77;1710902;83;21210;-59
2021/05/02 12:20:02;;;;;;;12.93;9.13;;;;;;;21.15;58.77;100207.38;1699989;83;21256;-59
2021/05/02 12:23:07;;;;;;;17.20;9.73;;;;;;;21.13;59.13;100204.53;1736515;82;21423;-58
2021/05/02 12:26:20;;;;;;;14.50;8.95;;;;;;;21.10;59.28;100200.32;1760637;81;21364;-58
2021/05/02 12:29:37;;;;;;;10.28;6.87;;;;;;;21.08;59.16;100205.28;1803895;79;21382;-59
2021/05/02 12:32:44;;;;;;;12.95;8.73;;;;;;;21.04;59.17;100199.90;1803912;79;21351;-59
2021/05/02 12:35:48;;;;;;;13.75;7.05;;;;;;;20.96;59.52;100203.10;1791598;79;21433;-60
2021/05/02 12:38:56;;;;;;;11.50;7.05;;;;;;;20.92;60.24;100203.78;1779430;79;21209;-59
2021/05/02 12:42:01;;;;;;;14.65;7.47;;;;;;;20.88;60.72;100204.00;1807010;79;21359;-60
2021/05/02 12:45:07;;;;;;;12.33;7.75;;;;;;;20.83;61.43;100200.56;1803298;79;21377;-58
2021/05/02 12:48:17;;;;;;;10.58;6.70;;;;;;;20.79;62.19;100199.35;1804088;79;21351;-58
2021/05/02 12:51:27;;;;;;;10.68;6.62;;;;;;;20.76;62.90;100197.06;1804055;79;21347;-59
2021/05/02 12:54:38;;;;;;;11.05;6.47;;;;;;;20.73;64.11;100204.52;1804199;79;21172;-59
2021/05/02 12:57:44;;;;;;;9.43;6.42;;;;;;;20.69;64.26;100201.94;1803749;79;21347;-59
2021/05/02 13:00:53;;;;;;;9.88;7.00;;;;;;;20.66;65.54;100194.09;1793438;79;21225;-59
2021/05/02 13:04:02;;;;;;;9.23;6.08;;;;;;;20.63;65.93;100195.94;1746645;81;21313;-59
2021/05/02 13:07:08;;;;;;;10.18;6.65;;;;;;;20.58;66.48;100200.03;1736322;82;21352;-59
2021/05/02 13:10:29;;;;;;;12.40;8.05;;;;;;;20.56;67.02;100194.72;1736161;82;21276;-58
2021/05/02 13:13:34;;;;;;;18.37;12.65;;;;;;;20.54;67.17;100201.59;1734925;82;21209;-59
2021/05/02 13:16:52;;;;;;;21.70;14.28;;;;;;;20.52;67.47;100202.38;1736922;82;21391;-60
2021/05/02 13:20:03;;;;;;;19.77;12.60;;;;;;;20.47;68.08;100198.12;1742019;81;21216;-59
2021/05/02 13:23:08;;;;;;;19.02;13.20;;;;;;;20.42;68.80;100203.00;1760545;81;21224;-59
2021/05/02 13:26:28;;;;;;;18.45;11.68;;;;;;;20.34;69.55;100195.03;1760312;81;21484;-58
2021/05/02 13:29:34;;;;;;;15.93;12.28;;;;;;;20.26;69.94;100184.84;1760418;81;21359;-58
2021/05/02 13:33:07;;;;;;;14.45;11.00;;;;;;;20.18;70.97;100181.89;1759021;81;21214;-58
2021/05/02 13:36:13;;;;;;;15.58;11.00;;;;;;;20.11;71.92;100181.12;1760695;81;21221;-58
2021/05/02 13:39:21;;;;;;;18.45;11.78;;;;;;;20.02;73.30;100185.91;1760761;81;21186;-58
2021/05/02 13:42:27;;;;;;;20.48;13.00;;;;;;;19.93;74.42;100181.23;1760069;81;22165;-58
2021/05/02 13:45:37;;;;;;;19.65;13.60;;;;;;;19.86;75.04;100181.92;1760393;81;21371;-57
2021/05/02 13:48:43;;;;;;;19.45;14.65;;;;;;;19.82;75.41;100186.25;1760470;81;21339;-57
2021/05/02 13:51:49;;;;;;;20.62;13.48;;;;;;;19.82;75.83;100184.03;1761617;81;21402;-58
2021/05/02 13:54:58;;;;;;;16.32;11.00;;;;;;;19.78;76.13;100180.88;1766203;81;21253;-58
2021/05/02 13:58:05;;;;;;;15.15;10.32;;;;;;;19.74;76.28;100180.22;1767199;81;21352;-59
2021/05/02 14:01:15;;;;;;;14.55;9.35;;;;;;;19.69;76.54;100185.64;1767439;80;21363;-58
2021/05/02 14:04:21;;;;;;;12.23;9.28;;;;;;;19.62;76.83;100177.42;1735102;82;21231;-58
2021/05/02 14:07:26;;;;;;;12.18;7.85;;;;;;;19.56;77.10;100180.30;1735426;82;21305;-58
2021/05/02 14:10:32;;;;;;;11.53;8.05;;;;;;;19.47;77.35;100174.80;1735700;82;21355;-58
2021/05/02 14:13:39;;;;;;;11.35;8.40;;;;;;;19.39;77.70;100178.78;1735503;82;21189;-59
2021/05/02 14:16:44;;;;;;;10.20;8.93;;;;;;;19.33;78.15;100172.23;1735605;82;21243;-58
2021/05/02 14:19:51;;;;;;;15.95;10.82;;;;;;;19.29;78.43;100175.19;1735678;82;21217;-58
2021/05/02 14:22:56;;;;;;;13.38;9.48;;;;;;;19.25;78.84;100154.50;1735556;82;21263;-59
2021/05/02 14:26:03;;;;;;;13.28;9.80;;;;;;;19.20;79.11;100146.59;1735866;82;21279;-58